sensor_id;sensor_type;location;lat;lon;timestamp;P1;durP1;ratioP1;P2;durP2;ratioP2
64018;SDS011;66942;52.138;5.216;2023-09-19T00:01:06;10.5;;;3.1;;
64018;SDS011;66942;52.138;5.216;2023-09-19T00:02:42;5.9;;;2.4;;
64018;SDS011;66942;52.138;5.216;2023-09-19T00:05:55;5.7;;;2.21;;
64018;SDS011;66942;52.138;5.216;2023-09-19T00:07:33;7.2;;;2.9;;
64018;SDS011;66942;52.138;5.216;2023-09-19T00:09:09;8.71;;;2.8;;
64018;SDS011;66942;52.138;5.216;2023-09-19T00:10:45;7.5;;;2.6;;
64018;SDS011;66942;52.138;5.216;2023-09-19T00:13:57;5.6;;;2.31;;
64018;SDS011;66942;52.138;5.216;2023-09-19T00:15:36;6.6;;;2.31;;
64018;SDS011;66942;52.138;5.216;2023-09-19T00:17:14;9.4;;;2.8;;
64018;SDS011;66942;52.138;5.216;2023-09-19T00:20:27;5.6;;;2.21;;
64018;SDS011;66942;52.138;5.216;2023-09-19T00:22:03;8.4;;;2.7;;
64018;SDS011;66942;52.138;5.216;2023-09-19T00:23:39;6.5;;;2.8;;
64018;SDS011;66942;52.138;5.216;2023-09-19T00:26:51;5.2;;;2.31;;
64018;SDS011;66942;52.138;5.216;2023-09-19T00:28:27;9.21;;;2.8;;
64018;SDS011;66942;52.138;5.216;2023-09-19T00:30:04;7.1;;;2.9;;
64018;SDS011;66942;52.138;5.216;2023-09-19T00:31:42;9.5;;;3.0;;
64018;SDS011;66942;52.138;5.216;2023-09-19T00:34:54;9.6;;;2.8;;
64018;SDS011;66942;52.138;5.216;2023-09-19T00:36:31;7.6;;;2.6;;
64018;SDS011;66942;52.138;5.216;2023-09-19T00:38:07;7.3;;;2.4;;
64018;SDS011;66942;52.138;5.216;2023-09-19T00:41:19;7.3;;;2.6;;
64018;SDS011;66942;52.138;5.216;2023-09-19T00:42:57;7.1;;;2.6;;
64018;SDS011;66942;52.138;5.216;2023-09-19T00:44:33;7.5;;;2.31;;
64018;SDS011;66942;52.138;5.216;2023-09-19T00:47:46;4.7;;;2.31;;
64018;SDS011;66942;52.138;5.216;2023-09-19T00:49:24;8.1;;;2.7;;
64018;SDS011;66942;52.138;5.216;2023-09-19T00:51:02;6.5;;;2.4;;
64018;SDS011;66942;52.138;5.216;2023-09-19T00:52:40;8.0;;;2.6;;
64018;SDS011;66942;52.138;5.216;2023-09-19T00:55:54;7.9;;;2.5;;
64018;SDS011;66942;52.138;5.216;2023-09-19T00:57:31;10.5;;;3.0;;
64018;SDS011;66942;52.138;5.216;2023-09-19T00:59:08;6.5;;;2.31;;
64018;SDS011;66942;52.138;5.216;2023-09-19T01:02:21;9.5;;;3.1;;
64018;SDS011;66942;52.138;5.216;2023-09-19T01:03:57;6.2;;;2.9;;
64018;SDS011;66942;52.138;5.216;2023-09-19T01:05:33;7.0;;;2.5;;
64018;SDS011;66942;52.138;5.216;2023-09-19T01:08:45;6.8;;;2.6;;
64018;SDS011;66942;52.138;5.216;2023-09-19T01:10:22;7.4;;;2.8;;
64018;SDS011;66942;52.138;5.216;2023-09-19T01:11:58;7.6;;;2.4;;
64018;SDS011;66942;52.138;5.216;2023-09-19T01:13:46;5.6;;;2.6;;
64018;SDS011;66942;52.138;5.216;2023-09-19T01:17:28;7.1;;;2.21;;
64018;SDS011;66942;52.138;5.216;2023-09-19T01:19:24;6.4;;;2.4;;
64018;SDS011;66942;52.138;5.216;2023-09-19T01:21:33;6.0;;;2.31;;
64018;SDS011;66942;52.138;5.216;2023-09-19T01:23:21;7.5;;;2.6;;
64018;SDS011;66942;52.138;5.216;2023-09-19T01:25:15;7.5;;;2.8;;
64018;SDS011;66942;52.138;5.216;2023-09-19T01:27:17;6.5;;;2.5;;
64018;SDS011;66942;52.138;5.216;2023-09-19T01:29:17;6.7;;;2.5;;
64018;SDS011;66942;52.138;5.216;2023-09-19T01:31:09;7.0;;;2.31;;
64018;SDS011;66942;52.138;5.216;2023-09-19T01:32:47;7.2;;;2.8;;
64018;SDS011;66942;52.138;5.216;2023-09-19T01:34:25;5.4;;;2.6;;
64018;SDS011;66942;52.138;5.216;2023-09-19T01:37:37;6.6;;;2.4;;
64018;SDS011;66942;52.138;5.216;2023-09-19T01:39:13;5.0;;;2.0;;
64018;SDS011;66942;52.138;5.216;2023-09-19T01:40:51;7.8;;;2.6;;
64018;SDS011;66942;52.138;5.216;2023-09-19T01:44:22;5.8;;;2.4;;
64018;SDS011;66942;52.138;5.216;2023-09-19T01:46:16;6.1;;;2.5;;
64018;SDS011;66942;52.138;5.216;2023-09-19T01:48:02;7.9;;;2.8;;
64018;SDS011;66942;52.138;5.216;2023-09-19T01:49:58;6.6;;;2.6;;
64018;SDS011;66942;52.138;5.216;2023-09-19T01:51:50;8.1;;;2.6;;
64018;SDS011;66942;52.138;5.216;2023-09-19T01:53:38;5.8;;;2.4;;
64018;SDS011;66942;52.138;5.216;2023-09-19T01:55:19;7.7;;;2.7;;
64018;SDS011;66942;52.138;5.216;2023-09-19T01:58:42;6.8;;;2.5;;
64018;SDS011;66942;52.138;5.216;2023-09-19T02:00:23;5.4;;;2.4;;
64018;SDS011;66942;52.138;5.216;2023-09-19T02:02:04;5.5;;;2.21;;
64018;SDS011;66942;52.138;5.216;2023-09-19T02:03:42;5.2;;;2.31;;
64018;SDS011;66942;52.138;5.216;2023-09-19T02:07:00;5.9;;;2.31;;
64018;SDS011;66942;52.138;5.216;2023-09-19T02:08:36;5.3;;;2.21;;
64018;SDS011;66942;52.138;5.216;2023-09-19T02:10:13;7.3;;;2.31;;
64018;SDS011;66942;52.138;5.216;2023-09-19T02:13:25;4.7;;;2.1;;
64018;SDS011;66942;52.138;5.216;2023-09-19T02:15:02;5.4;;;2.4;;
64018;SDS011;66942;52.138;5.216;2023-09-19T02:16:38;6.5;;;2.6;;
64018;SDS011;66942;52.138;5.216;2023-09-19T02:19:50;6.3;;;2.6;;
64018;SDS011;66942;52.138;5.216;2023-09-19T02:21:26;5.2;;;2.5;;
64018;SDS011;66942;52.138;5.216;2023-09-19T02:23:02;8.6;;;2.5;;
64018;SDS011;66942;52.138;5.216;2023-09-19T02:24:39;6.3;;;2.7;;
64018;SDS011;66942;52.138;5.216;2023-09-19T02:27:51;6.6;;;2.7;;
64018;SDS011;66942;52.138;5.216;2023-09-19T02:29:27;6.4;;;2.31;;
64018;SDS011;66942;52.138;5.216;2023-09-19T02:31:04;8.71;;;3.0;;
64018;SDS011;66942;52.138;5.216;2023-09-19T02:34:16;7.7;;;3.0;;
64018;SDS011;66942;52.138;5.216;2023-09-19T02:35:54;9.0;;;2.8;;
64018;SDS011;66942;52.138;5.216;2023-09-19T02:37:31;6.8;;;2.9;;
64018;SDS011;66942;52.138;5.216;2023-09-19T02:40:43;9.9;;;2.9;;
64018;SDS011;66942;52.138;5.216;2023-09-19T02:42:19;7.7;;;2.9;;
64018;SDS011;66942;52.138;5.216;2023-09-19T02:43:55;9.1;;;2.8;;
64018;SDS011;66942;52.138;5.216;2023-09-19T02:47:07;7.3;;;2.8;;
64018;SDS011;66942;52.138;5.216;2023-09-19T02:48:44;7.7;;;2.8;;
64018;SDS011;66942;52.138;5.216;2023-09-19T02:50:20;6.9;;;2.8;;
64018;SDS011;66942;52.138;5.216;2023-09-19T02:51:56;7.3;;;2.7;;
64018;SDS011;66942;52.138;5.216;2023-09-19T02:55:08;6.7;;;3.1;;
64018;SDS011;66942;52.138;5.216;2023-09-19T02:56:44;11.5;;;3.5;;
64018;SDS011;66942;52.138;5.216;2023-09-19T02:58:20;7.9;;;3.1;;
64018;SDS011;66942;52.138;5.216;2023-09-19T03:01:32;10.21;;;3.2;;
64018;SDS011;66942;52.138;5.216;2023-09-19T03:03:08;10.7;;;3.7;;
64018;SDS011;66942;52.138;5.216;2023-09-19T03:04:45;11.5;;;3.9;;
64018;SDS011;66942;52.138;5.216;2023-09-19T03:07:57;8.81;;;3.0;;
64018;SDS011;66942;52.138;5.216;2023-09-19T03:09:33;11.1;;;3.3;;
64018;SDS011;66942;52.138;5.216;2023-09-19T03:11:09;9.81;;;3.8;;
64018;SDS011;66942;52.138;5.216;2023-09-19T03:12:45;9.1;;;3.3;;
64018;SDS011;66942;52.138;5.216;2023-09-19T03:15:57;8.6;;;3.4;;
64018;SDS011;66942;52.138;5.216;2023-09-19T03:17:33;12.3;;;3.3;;
64018;SDS011;66942;52.138;5.216;2023-09-19T03:19:10;11.2;;;4.2;;
64018;SDS011;66942;52.138;5.216;2023-09-19T03:22:28;9.6;;;3.5;;
64018;SDS011;66942;52.138;5.216;2023-09-19T03:24:04;11.1;;;3.5;;
64018;SDS011;66942;52.138;5.216;2023-09-19T03:25:40;10.21;;;3.4;;
64018;SDS011;66942;52.138;5.216;2023-09-19T03:28:52;8.9;;;4.0;;
64018;SDS011;66942;52.138;5.216;2023-09-19T03:30:28;9.9;;;3.3;;
64018;SDS011;66942;52.138;5.216;2023-09-19T03:32:05;12.4;;;3.9;;
64018;SDS011;66942;52.138;5.216;2023-09-19T03:33:41;10.5;;;3.7;;
64018;SDS011;66942;52.138;5.216;2023-09-19T03:36:55;8.4;;;3.4;;
64018;SDS011;66942;52.138;5.216;2023-09-19T03:38:31;10.21;;;3.8;;
64018;SDS011;66942;52.138;5.216;2023-09-19T03:40:08;7.7;;;3.2;;
64018;SDS011;66942;52.138;5.216;2023-09-19T03:43:21;9.5;;;3.4;;
64018;SDS011;66942;52.138;5.216;2023-09-19T03:44:57;11.3;;;3.9;;
64018;SDS011;66942;52.138;5.216;2023-09-19T03:46:33;9.81;;;3.5;;
64018;SDS011;66942;52.138;5.216;2023-09-19T03:49:45;12.2;;;3.6;;
64018;SDS011;66942;52.138;5.216;2023-09-19T03:51:21;10.4;;;3.6;;
64018;SDS011;66942;52.138;5.216;2023-09-19T03:52:58;10.6;;;3.6;;
64018;SDS011;66942;52.138;5.216;2023-09-19T03:56:10;10.0;;;3.6;;
64018;SDS011;66942;52.138;5.216;2023-09-19T03:57:47;11.2;;;3.7;;
64018;SDS011;66942;52.138;5.216;2023-09-19T03:59:24;12.5;;;3.5;;
64018;SDS011;66942;52.138;5.216;2023-09-19T04:01:00;10.0;;;3.4;;
64018;SDS011;66942;52.138;5.216;2023-09-19T04:04:13;8.9;;;3.3;;
64018;SDS011;66942;52.138;5.216;2023-09-19T04:05:49;11.0;;;3.3;;
64018;SDS011;66942;52.138;5.216;2023-09-19T04:07:25;9.31;;;3.8;;
64018;SDS011;66942;52.138;5.216;2023-09-19T04:10:40;10.5;;;3.2;;
64018;SDS011;66942;52.138;5.216;2023-09-19T04:12:18;9.81;;;3.2;;
64018;SDS011;66942;52.138;5.216;2023-09-19T04:13:54;9.71;;;3.5;;
64018;SDS011;66942;52.138;5.216;2023-09-19T04:15:30;8.31;;;3.5;;
64018;SDS011;66942;52.138;5.216;2023-09-19T04:18:42;7.5;;;3.3;;
64018;SDS011;66942;52.138;5.216;2023-09-19T04:20:18;8.5;;;3.6;;
64018;SDS011;66942;52.138;5.216;2023-09-19T04:21:54;10.1;;;3.5;;
64018;SDS011;66942;52.138;5.216;2023-09-19T04:25:07;7.0;;;3.1;;
64018;SDS011;66942;52.138;5.216;2023-09-19T04:26:43;9.4;;;3.5;;
64018;SDS011;66942;52.138;5.216;2023-09-19T04:28:19;10.3;;;3.6;;
64018;SDS011;66942;52.138;5.216;2023-09-19T04:31:31;10.6;;;3.6;;
64018;SDS011;66942;52.138;5.216;2023-09-19T04:33:07;8.31;;;3.3;;
64018;SDS011;66942;52.138;5.216;2023-09-19T04:34:43;10.5;;;3.7;;
64018;SDS011;66942;52.138;5.216;2023-09-19T04:37:55;7.6;;;2.9;;
64018;SDS011;66942;52.138;5.216;2023-09-19T04:39:31;10.7;;;3.5;;
64018;SDS011;66942;52.138;5.216;2023-09-19T04:41:08;9.4;;;3.6;;
64018;SDS011;66942;52.138;5.216;2023-09-19T04:42:44;6.4;;;3.0;;
64018;SDS011;66942;52.138;5.216;2023-09-19T04:45:56;6.9;;;3.0;;
64018;SDS011;66942;52.138;5.216;2023-09-19T04:47:32;7.1;;;3.1;;
64018;SDS011;66942;52.138;5.216;2023-09-19T04:49:08;7.8;;;3.2;;
64018;SDS011;66942;52.138;5.216;2023-09-19T04:52:20;6.4;;;2.7;;
64018;SDS011;66942;52.138;5.216;2023-09-19T04:53:56;8.9;;;3.4;;
64018;SDS011;66942;52.138;5.216;2023-09-19T04:55:33;8.81;;;3.0;;
64018;SDS011;66942;52.138;5.216;2023-09-19T04:58:45;10.0;;;3.0;;
64018;SDS011;66942;52.138;5.216;2023-09-19T05:00:21;11.5;;;3.7;;
64018;SDS011;66942;52.138;5.216;2023-09-19T05:01:58;8.81;;;3.4;;
64018;SDS011;66942;52.138;5.216;2023-09-19T05:05:10;9.6;;;3.3;;
64018;SDS011;66942;52.138;5.216;2023-09-19T05:06:47;8.1;;;2.9;;
64018;SDS011;66942;52.138;5.216;2023-09-19T05:08:23;9.0;;;3.5;;
64018;SDS011;66942;52.138;5.216;2023-09-19T05:09:59;7.9;;;3.2;;
64018;SDS011;66942;52.138;5.216;2023-09-19T05:13:12;6.7;;;3.0;;
64018;SDS011;66942;52.138;5.216;2023-09-19T05:14:48;8.1;;;3.1;;
64018;SDS011;66942;52.138;5.216;2023-09-19T05:16:24;10.6;;;3.6;;
64018;SDS011;66942;52.138;5.216;2023-09-19T05:19:36;9.81;;;3.0;;
64018;SDS011;66942;52.138;5.216;2023-09-19T05:21:12;10.4;;;3.8;;
64018;SDS011;66942;52.138;5.216;2023-09-19T05:22:48;6.8;;;3.2;;
64018;SDS011;66942;52.138;5.216;2023-09-19T05:26:00;11.4;;;3.1;;
64018;SDS011;66942;52.138;5.216;2023-09-19T05:27:36;7.4;;;3.1;;
64018;SDS011;66942;52.138;5.216;2023-09-19T05:29:12;8.5;;;3.2;;
64018;SDS011;66942;52.138;5.216;2023-09-19T05:32:24;9.1;;;3.6;;
64018;SDS011;66942;52.138;5.216;2023-09-19T05:34:00;9.6;;;3.6;;
64018;SDS011;66942;52.138;5.216;2023-09-19T05:35:36;7.9;;;3.3;;
64018;SDS011;66942;52.138;5.216;2023-09-19T05:37:12;7.9;;;3.4;;
64018;SDS011;66942;52.138;5.216;2023-09-19T05:40:24;11.1;;;3.6;;
64018;SDS011;66942;52.138;5.216;2023-09-19T05:42:02;7.9;;;3.3;;
64018;SDS011;66942;52.138;5.216;2023-09-19T05:43:38;7.7;;;3.1;;
64018;SDS011;66942;52.138;5.216;2023-09-19T05:46:50;6.0;;;3.2;;
64018;SDS011;66942;52.138;5.216;2023-09-19T05:48:26;6.8;;;3.2;;
64018;SDS011;66942;52.138;5.216;2023-09-19T05:50:02;9.4;;;3.8;;
64018;SDS011;66942;52.138;5.216;2023-09-19T05:53:14;6.8;;;3.4;;
64018;SDS011;66942;52.138;5.216;2023-09-19T05:54:50;8.1;;;3.3;;
64018;SDS011;66942;52.138;5.216;2023-09-19T05:56:26;8.81;;;3.2;;
64018;SDS011;66942;52.138;5.216;2023-09-19T05:58:03;9.71;;;4.0;;
64018;SDS011;66942;52.138;5.216;2023-09-19T06:01:15;12.3;;;4.0;;
64018;SDS011;66942;52.138;5.216;2023-09-19T06:02:51;10.1;;;3.6;;
64018;SDS011;66942;52.138;5.216;2023-09-19T06:04:27;8.9;;;3.9;;
64018;SDS011;66942;52.138;5.216;2023-09-19T06:07:39;12.2;;;4.41;;
64018;SDS011;66942;52.138;5.216;2023-09-19T06:09:15;9.21;;;3.5;;
64018;SDS011;66942;52.138;5.216;2023-09-19T06:10:51;10.1;;;3.8;;
64018;SDS011;66942;52.138;5.216;2023-09-19T06:14:04;8.4;;;3.7;;
64018;SDS011;66942;52.138;5.216;2023-09-19T06:15:40;7.1;;;3.5;;
64018;SDS011;66942;52.138;5.216;2023-09-19T06:17:16;7.9;;;3.3;;
64018;SDS011;66942;52.138;5.216;2023-09-19T06:20:28;10.21;;;3.7;;
64018;SDS011;66942;52.138;5.216;2023-09-19T06:22:04;10.0;;;3.7;;
64018;SDS011;66942;52.138;5.216;2023-09-19T06:23:40;9.4;;;3.9;;
64018;SDS011;66942;52.138;5.216;2023-09-19T06:25:16;9.5;;;4.1;;
64018;SDS011;66942;52.138;5.216;2023-09-19T06:28:29;10.5;;;3.7;;
64018;SDS011;66942;52.138;5.216;2023-09-19T06:30:06;10.21;;;4.0;;
64018;SDS011;66942;52.138;5.216;2023-09-19T06:31:43;10.5;;;3.6;;
64018;SDS011;66942;52.138;5.216;2023-09-19T06:34:55;9.6;;;3.7;;
64018;SDS011;66942;52.138;5.216;2023-09-19T06:36:31;10.3;;;3.9;;
64018;SDS011;66942;52.138;5.216;2023-09-19T06:38:07;9.6;;;3.8;;
64018;SDS011;66942;52.138;5.216;2023-09-19T06:41:19;10.3;;;3.9;;
64018;SDS011;66942;52.138;5.216;2023-09-19T06:42:55;10.5;;;3.6;;
64018;SDS011;66942;52.138;5.216;2023-09-19T06:44:31;8.31;;;3.6;;
64018;SDS011;66942;52.138;5.216;2023-09-19T06:46:07;9.71;;;3.7;;
64018;SDS011;66942;52.138;5.216;2023-09-19T06:49:20;9.1;;;3.4;;
64018;SDS011;66942;52.138;5.216;2023-09-19T06:50:57;9.5;;;3.7;;
64018;SDS011;66942;52.138;5.216;2023-09-19T06:52:33;11.9;;;4.3;;
64018;SDS011;66942;52.138;5.216;2023-09-19T06:55:45;10.5;;;3.9;;
64018;SDS011;66942;52.138;5.216;2023-09-19T06:57:21;11.1;;;3.5;;
64018;SDS011;66942;52.138;5.216;2023-09-19T06:58:57;9.71;;;3.7;;
64018;SDS011;66942;52.138;5.216;2023-09-19T07:02:09;9.21;;;3.3;;
64018;SDS011;66942;52.138;5.216;2023-09-19T07:03:46;9.31;;;3.7;;
64018;SDS011;66942;52.138;5.216;2023-09-19T07:05:22;11.1;;;3.9;;
64018;SDS011;66942;52.138;5.216;2023-09-19T07:08:34;9.1;;;3.5;;
64018;SDS011;66942;52.138;5.216;2023-09-19T07:10:10;11.4;;;3.6;;
64018;SDS011;66942;52.138;5.216;2023-09-19T07:11:46;9.5;;;3.6;;
64018;SDS011;66942;52.138;5.216;2023-09-19T07:13:22;13.9;;;4.3;;
64018;SDS011;66942;52.138;5.216;2023-09-19T07:16:34;8.81;;;3.5;;
64018;SDS011;66942;52.138;5.216;2023-09-19T07:18:10;10.7;;;3.7;;
64018;SDS011;66942;52.138;5.216;2023-09-19T07:19:47;8.31;;;3.4;;
64018;SDS011;66942;52.138;5.216;2023-09-19T07:22:59;11.5;;;4.1;;
64018;SDS011;66942;52.138;5.216;2023-09-19T07:24:35;12.6;;;3.8;;
64018;SDS011;66942;52.138;5.216;2023-09-19T07:26:11;10.0;;;3.7;;
64018;SDS011;66942;52.138;5.216;2023-09-19T07:29:23;11.2;;;3.6;;
64018;SDS011;66942;52.138;5.216;2023-09-19T07:31:01;10.21;;;4.0;;
64018;SDS011;66942;52.138;5.216;2023-09-19T07:32:38;8.4;;;3.4;;
64018;SDS011;66942;52.138;5.216;2023-09-19T07:35:50;8.71;;;3.5;;
64018;SDS011;66942;52.138;5.216;2023-09-19T07:37:26;12.4;;;4.3;;
64018;SDS011;66942;52.138;5.216;2023-09-19T07:39:02;11.1;;;3.7;;
64018;SDS011;66942;52.138;5.216;2023-09-19T07:40:38;12.3;;;4.41;;
64018;SDS011;66942;52.138;5.216;2023-09-19T07:43:51;9.9;;;3.7;;
64018;SDS011;66942;52.138;5.216;2023-09-19T07:45:27;8.31;;;3.7;;
64018;SDS011;66942;52.138;5.216;2023-09-19T07:47:03;10.6;;;3.7;;
64018;SDS011;66942;52.138;5.216;2023-09-19T07:50:16;9.81;;;3.9;;
64018;SDS011;66942;52.138;5.216;2023-09-19T07:51:53;9.81;;;3.9;;
64018;SDS011;66942;52.138;5.216;2023-09-19T07:53:29;11.3;;;4.7;;
64018;SDS011;66942;52.138;5.216;2023-09-19T07:56:42;10.3;;;3.9;;
64018;SDS011;66942;52.138;5.216;2023-09-19T07:58:18;11.1;;;4.3;;
64018;SDS011;66942;52.138;5.216;2023-09-19T07:59:54;11.1;;;4.2;;
64018;SDS011;66942;52.138;5.216;2023-09-19T08:01:30;12.7;;;4.7;;
64018;SDS011;66942;52.138;5.216;2023-09-19T08:04:42;9.21;;;3.9;;
64018;SDS011;66942;52.138;5.216;2023-09-19T08:06:19;12.8;;;3.9;;
64018;SDS011;66942;52.138;5.216;2023-09-19T08:07:55;11.2;;;4.61;;
64018;SDS011;66942;52.138;5.216;2023-09-19T08:11:07;10.5;;;3.8;;
64018;SDS011;66942;52.138;5.216;2023-09-19T08:12:43;13.8;;;4.61;;
64018;SDS011;66942;52.138;5.216;2023-09-19T08:14:19;9.71;;;3.8;;
64018;SDS011;66942;52.138;5.216;2023-09-19T08:17:33;10.5;;;3.9;;
64018;SDS011;66942;52.138;5.216;2023-09-19T08:19:09;10.9;;;4.3;;
64018;SDS011;66942;52.138;5.216;2023-09-19T08:20:48;11.4;;;4.5;;
64018;SDS011;66942;52.138;5.216;2023-09-19T08:22:25;9.71;;;4.2;;
64018;SDS011;66942;52.138;5.216;2023-09-19T08:25:38;11.3;;;4.5;;
64018;SDS011;66942;52.138;5.216;2023-09-19T08:27:14;11.7;;;4.0;;
64018;SDS011;66942;52.138;5.216;2023-09-19T08:28:50;13.1;;;4.91;;
64018;SDS011;66942;52.138;5.216;2023-09-19T08:32:02;11.2;;;4.5;;
64018;SDS011;66942;52.138;5.216;2023-09-19T08:33:39;8.31;;;3.5;;
64018;SDS011;66942;52.138;5.216;2023-09-19T08:35:15;9.5;;;4.0;;
64018;SDS011;66942;52.138;5.216;2023-09-19T08:38:28;10.21;;;4.0;;
64018;SDS011;66942;52.138;5.216;2023-09-19T08:40:05;11.3;;;4.2;;
64018;SDS011;66942;52.138;5.216;2023-09-19T08:41:42;14.4;;;4.8;;
64018;SDS011;66942;52.138;5.216;2023-09-19T08:43:18;12.5;;;4.5;;
64018;SDS011;66942;52.138;5.216;2023-09-19T08:46:35;12.3;;;4.8;;
64018;SDS011;66942;52.138;5.216;2023-09-19T08:48:20;15.3;;;4.7;;
64018;SDS011;66942;52.138;5.216;2023-09-19T08:50:03;12.0;;;4.41;;
64018;SDS011;66942;52.138;5.216;2023-09-19T08:51:46;10.0;;;4.2;;
64018;SDS011;66942;52.138;5.216;2023-09-19T08:55:17;14.4;;;4.5;;
64018;SDS011;66942;52.138;5.216;2023-09-19T08:56:54;12.7;;;4.41;;
64018;SDS011;66942;52.138;5.216;2023-09-19T08:58:38;9.1;;;4.3;;
64018;SDS011;66942;52.138;5.216;2023-09-19T09:00:27;10.0;;;4.1;;
64018;SDS011;66942;52.138;5.216;2023-09-19T09:03:44;11.3;;;4.8;;
64018;SDS011;66942;52.138;5.216;2023-09-19T09:05:23;12.3;;;4.5;;
64018;SDS011;66942;52.138;5.216;2023-09-19T09:07:00;13.9;;;4.61;;
64018;SDS011;66942;52.138;5.216;2023-09-19T09:08:38;12.1;;;4.3;;
64018;SDS011;66942;52.138;5.216;2023-09-19T09:11:51;11.5;;;4.3;;
64018;SDS011;66942;52.138;5.216;2023-09-19T09:13:29;12.4;;;4.41;;
64018;SDS011;66942;52.138;5.216;2023-09-19T09:15:06;12.2;;;4.61;;
64018;SDS011;66942;52.138;5.216;2023-09-19T09:18:19;9.81;;;4.41;;
64018;SDS011;66942;52.138;5.216;2023-09-19T09:19:55;16.0;;;4.61;;
64018;SDS011;66942;52.138;5.216;2023-09-19T09:21:31;9.5;;;3.8;;
64018;SDS011;66942;52.138;5.216;2023-09-19T09:23:07;10.4;;;3.9;;
64018;SDS011;66942;52.138;5.216;2023-09-19T09:26:40;10.5;;;4.1;;
64018;SDS011;66942;52.138;5.216;2023-09-19T09:28:20;7.9;;;3.5;;
64018;SDS011;66942;52.138;5.216;2023-09-19T09:29:58;8.81;;;4.1;;
64018;SDS011;66942;52.138;5.216;2023-09-19T09:31:34;10.9;;;3.8;;
64018;SDS011;66942;52.138;5.216;2023-09-19T09:34:50;9.6;;;4.0;;
64018;SDS011;66942;52.138;5.216;2023-09-19T09:36:36;12.9;;;4.2;;
64018;SDS011;66942;52.138;5.216;2023-09-19T09:38:14;10.5;;;4.1;;
64018;SDS011;66942;52.138;5.216;2023-09-19T09:39:52;12.5;;;4.5;;
64018;SDS011;66942;52.138;5.216;2023-09-19T09:43:16;10.8;;;4.41;;
64018;SDS011;66942;52.138;5.216;2023-09-19T09:45:19;10.4;;;3.7;;
64018;SDS011;66942;52.138;5.216;2023-09-19T09:46:56;12.0;;;4.5;;
64018;SDS011;66942;52.138;5.216;2023-09-19T09:48:32;11.0;;;3.9;;
64018;SDS011;66942;52.138;5.216;2023-09-19T09:51:44;11.3;;;4.1;;
64018;SDS011;66942;52.138;5.216;2023-09-19T09:53:26;10.6;;;4.1;;
64018;SDS011;66942;52.138;5.216;2023-09-19T09:55:03;16.5;;;4.5;;
64018;SDS011;66942;52.138;5.216;2023-09-19T09:56:55;10.21;;;3.6;;
64018;SDS011;66942;52.138;5.216;2023-09-19T10:00:10;10.7;;;4.1;;
64018;SDS011;66942;52.138;5.216;2023-09-19T10:01:47;10.7;;;3.6;;
64018;SDS011;66942;52.138;5.216;2023-09-19T10:03:30;10.21;;;4.3;;
64018;SDS011;66942;52.138;5.216;2023-09-19T10:05:11;11.0;;;4.0;;
64018;SDS011;66942;52.138;5.216;2023-09-19T10:08:27;9.1;;;4.2;;
64018;SDS011;66942;52.138;5.216;2023-09-19T10:10:04;8.5;;;3.5;;
64018;SDS011;66942;52.138;5.216;2023-09-19T10:11:41;12.6;;;3.6;;
64018;SDS011;66942;52.138;5.216;2023-09-19T10:13:19;11.2;;;4.0;;
64018;SDS011;66942;52.138;5.216;2023-09-19T10:16:36;9.5;;;3.3;;
64018;SDS011;66942;52.138;5.216;2023-09-19T10:18:16;9.6;;;3.5;;
64018;SDS011;66942;52.138;5.216;2023-09-19T10:19:56;8.6;;;3.5;;
64018;SDS011;66942;52.138;5.216;2023-09-19T10:23:11;9.31;;;3.8;;
64018;SDS011;66942;52.138;5.216;2023-09-19T10:24:47;10.8;;;3.5;;
64018;SDS011;66942;52.138;5.216;2023-09-19T10:26:26;8.6;;;3.6;;
64018;SDS011;66942;52.138;5.216;2023-09-19T10:28:03;8.5;;;3.6;;
64018;SDS011;66942;52.138;5.216;2023-09-19T10:31:21;9.9;;;3.7;;
64018;SDS011;66942;52.138;5.216;2023-09-19T10:33:00;7.6;;;3.0;;
64018;SDS011;66942;52.138;5.216;2023-09-19T10:34:38;7.1;;;3.0;;
64018;SDS011;66942;52.138;5.216;2023-09-19T10:36:17;10.1;;;3.4;;
64018;SDS011;66942;52.138;5.216;2023-09-19T10:39:32;8.6;;;3.7;;
64018;SDS011;66942;52.138;5.216;2023-09-19T10:41:08;9.71;;;3.7;;
64018;SDS011;66942;52.138;5.216;2023-09-19T10:42:48;7.1;;;3.2;;
64018;SDS011;66942;52.138;5.216;2023-09-19T10:46:08;7.6;;;2.6;;
64018;SDS011;66942;52.138;5.216;2023-09-19T10:47:44;9.0;;;3.4;;
64018;SDS011;66942;52.138;5.216;2023-09-19T10:49:20;5.8;;;3.1;;
64018;SDS011;66942;52.138;5.216;2023-09-19T10:50:58;6.7;;;2.8;;
64018;SDS011;66942;52.138;5.216;2023-09-19T10:54:18;8.31;;;2.9;;
64018;SDS011;66942;52.138;5.216;2023-09-19T10:55:59;8.71;;;2.9;;
64018;SDS011;66942;52.138;5.216;2023-09-19T10:57:37;6.0;;;2.7;;
64018;SDS011;66942;52.138;5.216;2023-09-19T11:00:52;6.7;;;3.1;;
64018;SDS011;66942;52.138;5.216;2023-09-19T11:02:30;6.0;;;2.5;;
64018;SDS011;66942;52.138;5.216;2023-09-19T11:04:20;6.8;;;2.8;;
64018;SDS011;66942;52.138;5.216;2023-09-19T11:06:00;7.9;;;2.9;;
64018;SDS011;66942;52.138;5.216;2023-09-19T11:07:56;5.5;;;2.31;;
64018;SDS011;66942;52.138;5.216;2023-09-19T11:11:42;8.0;;;2.7;;
64018;SDS011;66942;52.138;5.216;2023-09-19T11:13:24;6.9;;;2.4;;
64018;SDS011;66942;52.138;5.216;2023-09-19T11:15:01;5.5;;;2.31;;
64018;SDS011;66942;52.138;5.216;2023-09-19T11:16:37;4.7;;;2.0;;
64018;SDS011;66942;52.138;5.216;2023-09-19T11:18:50;5.6;;;2.31;;
64018;SDS011;66942;52.138;5.216;2023-09-19T11:20:28;6.1;;;2.4;;
64018;SDS011;66942;52.138;5.216;2023-09-19T11:23:40;6.1;;;2.0;;
64018;SDS011;66942;52.138;5.216;2023-09-19T11:25:41;7.1;;;2.21;;
64018;SDS011;66942;52.138;5.216;2023-09-19T11:27:25;5.6;;;2.21;;
64018;SDS011;66942;52.138;5.216;2023-09-19T11:29:24;4.3;;;2.1;;
64018;SDS011;66942;52.138;5.216;2023-09-19T11:33:19;6.2;;;2.21;;
64018;SDS011;66942;52.138;5.216;2023-09-19T11:35:06;4.8;;;1.9;;
64018;SDS011;66942;52.138;5.216;2023-09-19T11:38:19;7.3;;;2.21;;
64018;SDS011;66942;52.138;5.216;2023-09-19T11:40:34;6.1;;;1.9;;
64018;SDS011;66942;52.138;5.216;2023-09-19T11:42:41;4.3;;;1.8;;
64018;SDS011;66942;52.138;5.216;2023-09-19T11:44:34;5.9;;;2.1;;
64018;SDS011;66942;52.138;5.216;2023-09-19T11:46:10;4.91;;;1.8;;
64018;SDS011;66942;52.138;5.216;2023-09-19T11:47:46;7.2;;;2.1;;
64018;SDS011;66942;52.138;5.216;2023-09-19T11:51:11;5.5;;;2.0;;
64018;SDS011;66942;52.138;5.216;2023-09-19T11:52:57;5.4;;;2.0;;
64018;SDS011;66942;52.138;5.216;2023-09-19T11:54:34;5.11;;;1.8;;
64018;SDS011;66942;52.138;5.216;2023-09-19T11:56:11;7.4;;;2.5;;
64018;SDS011;66942;52.138;5.216;2023-09-19T11:59:24;5.2;;;1.8;;
64018;SDS011;66942;52.138;5.216;2023-09-19T12:01:02;4.8;;;1.7;;
64018;SDS011;66942;52.138;5.216;2023-09-19T12:02:41;4.3;;;1.9;;
64018;SDS011;66942;52.138;5.216;2023-09-19T12:04:33;5.2;;;1.9;;
64018;SDS011;66942;52.138;5.216;2023-09-19T12:07:47;4.2;;;1.5;;
64018;SDS011;66942;52.138;5.216;2023-09-19T12:09:24;7.2;;;2.1;;
64018;SDS011;66942;52.138;5.216;2023-09-19T12:11:01;4.0;;;1.7;;
64018;SDS011;66942;52.138;5.216;2023-09-19T12:12:37;4.3;;;2.1;;
64018;SDS011;66942;52.138;5.216;2023-09-19T12:15:58;5.6;;;1.8;;
64018;SDS011;66942;52.138;5.216;2023-09-19T12:17:35;4.7;;;2.0;;
64018;SDS011;66942;52.138;5.216;2023-09-19T12:19:20;5.7;;;1.9;;
64018;SDS011;66942;52.138;5.216;2023-09-19T12:20:57;4.0;;;1.4;;
64018;SDS011;66942;52.138;5.216;2023-09-19T12:24:14;4.0;;;1.7;;
64018;SDS011;66942;52.138;5.216;2023-09-19T12:25:51;5.2;;;1.8;;
64018;SDS011;66942;52.138;5.216;2023-09-19T12:27:27;5.7;;;2.4;;
64018;SDS011;66942;52.138;5.216;2023-09-19T12:30:39;5.9;;;1.8;;
64018;SDS011;66942;52.138;5.216;2023-09-19T12:32:15;6.4;;;1.8;;
64018;SDS011;66942;52.138;5.216;2023-09-19T12:33:53;5.11;;;1.7;;
64018;SDS011;66942;52.138;5.216;2023-09-19T12:37:08;6.3;;;2.1;;
64018;SDS011;66942;52.138;5.216;2023-09-19T12:38:47;5.11;;;1.7;;
64018;SDS011;66942;52.138;5.216;2023-09-19T12:40:24;5.7;;;1.7;;
64018;SDS011;66942;52.138;5.216;2023-09-19T12:42:00;5.8;;;1.6;;
64018;SDS011;66942;52.138;5.216;2023-09-19T12:45:12;4.5;;;1.5;;
64018;SDS011;66942;52.138;5.216;2023-09-19T12:46:49;4.0;;;1.6;;
64018;SDS011;66942;52.138;5.216;2023-09-19T12:48:26;3.8;;;1.7;;
64018;SDS011;66942;52.138;5.216;2023-09-19T12:51:45;3.7;;;1.5;;
64018;SDS011;66942;52.138;5.216;2023-09-19T12:53:24;3.7;;;1.6;;
64018;SDS011;66942;52.138;5.216;2023-09-19T12:55:00;3.4;;;1.5;;